createdAt,value
2022-08-04T00:02:57.412Z,1.67
2022-08-04T00:08:07.311Z,1.85
2022-08-04T00:13:10.813Z,1.85
2022-08-04T00:18:15.822Z,1.92
2022-08-04T00:23:18.533Z,1.25
2022-08-04T00:28:21.745Z,1.65
2022-08-04T00:33:23.583Z,2.33
2022-08-04T00:38:26.053Z,1.50
2022-08-04T00:44:05.701Z,2.10
2022-08-04T00:49:13.164Z,1.70
2022-08-04T00:54:53.238Z,1.98
2022-08-04T01:00:15.765Z,1.88
2022-08-04T01:05:29.044Z,1.80
2022-08-04T01:10:58.734Z,2.38
2022-08-04T01:16:06.413Z,2.55
2022-08-04T01:21:49.507Z,2.13
2022-08-04T01:27:26.192Z,2.40
2022-08-04T01:32:38.232Z,2.80
2022-08-04T01:37:42.476Z,2.92
2022-08-04T01:42:44.825Z,2.22
2022-08-04T01:47:54.011Z,2.78
2022-08-04T01:52:55.782Z,2.60
2022-08-04T01:58:00.242Z,2.42
2022-08-04T02:03:01.851Z,2.85
2022-08-04T02:08:12.181Z,3.22
2022-08-04T02:13:35.309Z,3.13
2022-08-04T02:18:59.971Z,2.85
2022-08-04T02:24:06.985Z,3.25
2022-08-04T02:29:20.918Z,2.60
2022-08-04T02:34:29.123Z,2.88
2022-08-04T02:39:48.048Z,3.10
2022-08-04T02:44:51.429Z,2.55
2022-08-04T02:49:53.320Z,2.58
2022-08-04T02:55:01.481Z,2.75
2022-08-04T03:00:06.021Z,2.85
2022-08-04T03:05:19.857Z,2.90
2022-08-04T03:10:40.843Z,2.97
2022-08-04T03:16:19.395Z,2.75
2022-08-04T03:21:29.899Z,3.08
2022-08-04T03:27:00.439Z,2.70
2022-08-04T03:32:23.677Z,2.70
2022-08-04T03:37:37.337Z,2.88
2022-08-04T03:43:04.518Z,2.95
2022-08-04T03:48:27.637Z,3.20
2022-08-04T03:53:44.288Z,2.72
2022-08-04T04:04:01.898Z,3.28
2022-08-04T04:09:03.485Z,2.80
2022-08-04T04:14:33.456Z,3.00
2022-08-04T04:19:34.946Z,3.15
2022-08-04T04:24:51.699Z,2.92
2022-08-04T04:30:01.298Z,2.63
2022-08-04T04:35:09.031Z,3.10
2022-08-04T04:40:31.908Z,3.22
2022-08-04T04:45:43.888Z,3.45
2022-08-04T04:51:04.014Z,2.83
2022-08-04T04:56:14.348Z,2.88
2022-08-04T05:01:50.037Z,2.80
2022-08-04T05:07:05.651Z,2.65
2022-08-04T05:14:31.279Z,2.78
2022-08-04T05:17:55.403Z,2.47
2022-08-04T05:23:02.592Z,2.50
2022-08-04T05:28:12.217Z,2.55
2022-08-04T05:33:16.577Z,2.30
2022-08-04T05:38:22.183Z,2.63
2022-08-04T05:48:27.633Z,2.78
2022-08-04T05:53:30.254Z,2.58
2022-08-04T05:58:32.770Z,2.13
2022-08-04T06:03:35.691Z,2.00
2022-08-04T06:08:37.448Z,2.20
2022-08-04T06:13:49.648Z,2.60
2022-08-04T06:20:02.033Z,2.38
2022-08-04T06:24:19.864Z,2.35
2022-08-04T06:29:23.626Z,2.75
2022-08-04T06:34:29.845Z,2.20
2022-08-04T06:39:33.772Z,2.83
2022-08-04T06:44:38.941Z,2.83
2022-08-04T06:49:55.036Z,2.75
2022-08-04T06:55:05.603Z,3.20
2022-08-04T07:00:10.401Z,2.85
2022-08-04T07:05:12.422Z,2.70
2022-08-04T07:10:14.921Z,2.38
2022-08-04T07:15:25.515Z,2.42
2022-08-04T07:20:34.068Z,2.35
2022-08-04T07:25:59.691Z,2.65
2022-08-04T07:30:59.486Z,2.33
2022-08-04T07:36:04.928Z,2.78
2022-08-04T07:46:35.828Z,2.55
2022-08-04T07:51:37.571Z,2.25
2022-08-04T07:56:41.295Z,2.38
2022-08-04T08:01:43.058Z,2.47
2022-08-04T08:06:44.829Z,2.08
2022-08-04T08:12:35.298Z,2.55
2022-08-04T08:17:10.401Z,1.70
2022-08-04T08:22:12.260Z,1.90
2022-08-04T08:27:13.983Z,1.90
2022-08-04T08:32:15.972Z,2.30
2022-08-04T08:37:30.410Z,1.60
2022-08-04T08:42:53.940Z,1.90
2022-08-04T08:48:06.438Z,2.57
2022-08-04T08:53:32.809Z,2.05
2022-08-04T08:58:48.468Z,1.80
2022-08-04T09:04:34.017Z,2.25
2022-08-04T09:09:41.769Z,1.55
2022-08-04T09:14:52.865Z,1.60
2022-08-04T09:20:12.936Z,1.88
2022-08-04T09:25:28.754Z,1.83
2022-08-04T09:30:43.418Z,2.38
2022-08-04T09:35:51.689Z,2.17
2022-08-04T09:41:02.336Z,1.90
2022-08-04T09:46:15.813Z,2.30
2022-08-04T09:51:57.459Z,1.70
2022-08-04T09:57:28.324Z,1.93
2022-08-04T10:02:37.973Z,1.88
2022-08-04T10:08:16.539Z,2.00
2022-08-04T10:13:25.794Z,1.55
2022-08-04T10:18:56.719Z,2.35
2022-08-04T10:24:00.446Z,1.70
2022-08-04T10:29:25.420Z,1.70
2022-08-04T10:34:36.552Z,1.48
2022-08-04T10:39:56.446Z,1.25
2022-08-04T10:45:16.274Z,1.30
2022-08-04T10:50:20.104Z,1.30
2022-08-04T10:56:06.193Z,1.45
2022-08-04T11:06:00.799Z,1.80
2022-08-04T11:12:00.209Z,2.45
2022-08-04T11:17:07.043Z,1.70
2022-08-04T11:22:23.603Z,1.63
2022-08-04T11:27:31.790Z,1.52
2022-08-04T11:33:01.958Z,1.20
2022-08-04T11:38:46.794Z,1.58
2022-08-04T11:44:01.891Z,1.75
2022-08-04T11:49:16.211Z,1.33
2022-08-04T11:54:19.381Z,1.40
2022-08-04T11:59:23.766Z,1.90
2022-08-04T12:04:51.568Z,1.60
2022-08-04T12:10:05.314Z,1.70
2022-08-04T12:15:22.516Z,1.63
2022-08-04T12:20:31.585Z,1.65
2022-08-04T12:25:45.275Z,1.80
2022-08-04T12:30:59.157Z,1.60
2022-08-04T12:36:34.609Z,1.60
2022-08-04T12:41:52.397Z,1.42
2022-08-04T12:46:54.967Z,2.15
2022-08-04T12:52:20.139Z,1.48
2022-08-04T12:57:24.425Z,1.50
2022-08-04T13:02:30.185Z,1.90
2022-08-04T13:07:45.952Z,1.50
2022-08-04T13:12:56.494Z,2.10
2022-08-04T13:18:01.875Z,1.67
2022-08-04T13:23:12.194Z,2.75
2022-08-04T13:28:23.135Z,1.90
2022-08-04T13:33:36.560Z,1.75
2022-08-04T13:38:46.340Z,1.73
2022-08-04T13:44:17.469Z,2.42
2022-08-04T13:49:48.459Z,1.65
2022-08-04T13:54:46.355Z,1.50
2022-08-04T13:59:53.122Z,2.28
2022-08-04T14:05:01.595Z,1.70
2022-08-04T14:10:10.437Z,1.98
2022-08-04T14:16:01.283Z,1.55
2022-08-04T14:21:05.027Z,1.83
2022-08-04T14:31:26.680Z,2.13
2022-08-04T14:37:13.077Z,1.50
2022-08-04T14:42:05.478Z,1.50
2022-08-04T14:47:07.051Z,1.80
2022-08-04T14:52:23.928Z,1.75
2022-08-04T14:57:25.701Z,1.75
2022-08-04T15:02:29.936Z,2.53
2022-08-04T15:07:32.493Z,2.05
2022-08-04T15:12:34.327Z,1.80
2022-08-04T15:17:36.710Z,2.05
2022-08-04T15:22:38.355Z,2.17
2022-08-04T15:27:41.079Z,1.70
2022-08-04T15:32:54.609Z,2.42
2022-08-04T15:37:58.881Z,2.43
2022-08-04T15:43:00.373Z,2.17
2022-08-04T15:48:03.025Z,1.92
2022-08-04T15:53:12.533Z,2.00
2022-08-04T15:58:16.570Z,1.80
2022-08-04T16:03:54.526Z,1.90
2022-08-04T16:09:00.486Z,1.50
2022-08-04T16:14:02.017Z,2.13
2022-08-04T16:19:22.972Z,1.80
2022-08-04T16:24:37.347Z,2.55
2022-08-04T16:29:42.824Z,2.20
2022-08-04T16:34:55.140Z,2.10
2022-08-04T16:40:39.704Z,2.42
2022-08-04T16:45:49.039Z,2.10
2022-08-04T16:50:50.500Z,2.22
2022-08-04T16:55:54.065Z,2.10
2022-08-04T17:00:56.562Z,2.20
2022-08-04T17:06:13.342Z,2.15
2022-08-04T17:11:15.260Z,2.45
2022-08-04T17:16:18.841Z,2.28
2022-08-04T17:21:26.225Z,2.15
2022-08-04T17:26:39.768Z,2.30
2022-08-04T17:31:53.301Z,1.60
2022-08-04T17:37:07.262Z,2.55
2022-08-04T17:42:37.073Z,2.40
2022-08-04T17:47:53.831Z,2.25
2022-08-04T17:53:12.299Z,2.05
2022-08-04T17:58:22.522Z,1.85
2022-08-04T18:03:29.191Z,2.50
2022-08-04T18:08:37.830Z,2.35
2022-08-04T18:13:43.437Z,2.53
2022-08-04T18:19:04.967Z,2.25
2022-08-04T18:24:06.670Z,2.10
2022-08-04T18:29:30.909Z,2.80
2022-08-04T18:34:33.606Z,3.05
2022-08-04T18:40:10.602Z,2.30
2022-08-04T18:44:57.449Z,2.40
2022-08-04T18:50:39.988Z,3.10
2022-08-04T18:55:55.305Z,3.10
2022-08-04T19:00:45.710Z,2.47
2022-08-04T19:05:48.535Z,2.72
2022-08-04T19:10:54.391Z,2.88
2022-08-04T19:16:02.582Z,2.83
2022-08-04T19:21:05.201Z,2.78
2022-08-04T19:26:16.554Z,3.10
2022-08-04T19:31:34.372Z,2.83
2022-08-04T19:36:45.983Z,2.92
2022-08-04T19:42:06.159Z,4.03
2022-08-04T19:48:13.047Z,2.47
2022-08-04T19:52:33.310Z,2.75
2022-08-04T19:57:36.268Z,2.63
2022-08-04T20:02:37.989Z,3.05
2022-08-04T20:07:40.077Z,2.30
2022-08-04T20:12:42.374Z,2.97
2022-08-04T20:18:06.841Z,3.38
2022-08-04T20:23:07.146Z,3.00
2022-08-04T20:28:25.609Z,3.08
2022-08-04T20:33:33.375Z,2.80
2022-08-04T20:38:35.437Z,2.72
2022-08-04T20:43:37.091Z,2.38
2022-08-04T20:48:39.834Z,2.55
2022-08-04T20:53:52.746Z,2.35
2022-08-04T20:58:55.199Z,2.15
2022-08-04T21:03:59.741Z,2.10
2022-08-04T21:09:09.673Z,3.03
2022-08-04T21:14:17.281Z,2.42
2022-08-04T21:19:22.489Z,2.50
2022-08-04T21:24:27.281Z,2.33
2022-08-04T21:29:34.969Z,2.88
2022-08-04T21:34:39.394Z,1.88
2022-08-04T21:39:58.774Z,2.25
2022-08-04T21:45:03.649Z,2.80
2022-08-04T21:50:05.676Z,3.13
2022-08-04T21:55:07.638Z,2.20
2022-08-04T22:05:32.825Z,2.72
2022-08-04T22:10:34.490Z,2.28
2022-08-04T22:16:03.673Z,2.15
2022-08-04T22:20:57.706Z,2.55
2022-08-04T22:25:59.922Z,3.30
2022-08-04T22:31:24.041Z,3.38
2022-08-04T22:36:24.638Z,2.50
2022-08-04T22:41:33.834Z,2.83
2022-08-04T22:46:35.714Z,2.38
2022-08-04T22:51:37.296Z,2.55
2022-08-04T22:56:39.812Z,2.58
2022-08-04T23:01:58.830Z,3.25
2022-08-04T23:07:05.238Z,3.15
2022-08-04T23:12:27.686Z,3.30
2022-08-04T23:17:32.936Z,3.60
2022-08-04T23:22:45.549Z,4.13
2022-08-04T23:27:52.305Z,5.43
2022-08-04T23:32:54.070Z,4.60
2022-08-04T23:37:57.099Z,4.63
2022-08-04T23:42:59.559Z,4.30
2022-08-04T23:48:15.267Z,4.22
2022-08-04T23:53:22.544Z,3.40
2022-08-04T23:58:28.161Z,2.92
